NCAR-RAP Real-Time Weather Data

Output produced by METARs form (17 October 2018  16:45 UTC)
found at http://weather.rap.ucar.edu/surface/
 
RJFT 171200Z VRB01KT CAVOK 14/11 Q1014
RJFT 171100Z 04004KT 360V090 CAVOK 15/12 Q1014
RJFT 171000Z 34003KT CAVOK 14/13 Q1013
RJFT 170900Z 34005KT CAVOK 16/12 Q1012
RJFT 170800Z 35003KT 330V030 9999 FEW045 BKN/// 20/11 Q1012
RJFT 170700Z 32005KT 290V360 9999 FEW045 SCT060 BKN/// 22/10 Q1012
RJFT 170600Z 33007KT 9999 FEW045 SCT060 BKN/// 22/10 Q1011
RJFT 170500Z 34005KT 290V030 9999 SCT050 BKN/// 22/10 Q1011
RJFT 170400Z 32004KT 240V020 9999 FEW040 BKN/// 22/11 Q1012
RJFT 170300Z 01005KT 280V060 9999 FEW030 BKN/// 21/10 Q1012
RJFT 170200Z VRB04KT 9999 FEW030 BKN/// 20/11 Q1013
RJFT 170100Z 34003KT 270V040 9999 FEW030 BKN/// 18/12 Q1014
RJFT 170000Z VRB01KT CAVOK 17/13 Q1013
RJFT 162300Z VRB01KT 9999 FEW040 BKN/// 15/13 Q1013
RJFT 162200Z VRB02KT CAVOK 13/13 Q1013
RJFT 162110Z 06003KT CAVOK 13/13 Q1013 RMK A2992
RJFT 161200Z 08003KT 040V110 9999 FEW045 BKN090 BKN120 17/16 Q1012
RJFT 161100Z VRB02KT 9999 -SHRA FEW030 BKN040 BKN060 16/16 Q1012
RJFT 161000Z 34003KT CAVOK 17/13 Q1011
RJFT 160900Z 34004KT 310V010 9999 FEW040 BKN120 19/13 Q1011
RJFT 160800Z 23003KT 190V270 9999 FEW040 SCT110 BKN170 19/15 Q1011
RJFT 160700Z 24003KT 200V010 9999 FEW040 BKN170 21/14 Q1011
RJFT 160600Z VRB02KT 9999 FEW040 BKN110 22/13 Q1011
RJFT 160500Z 23005KT 190V260 9999 FEW040 BKN130 21/13 Q1011
RJFT 160400Z 21004KT 170V250 9999 FEW040 BKN130 21/12 Q1012
RJFT 160300Z 22005KT 160V290 9999 FEW040 BKN120 21/13 Q1013
RJFT 160200Z VRB02KT CAVOK 19/14 Q1013
RJFT 160100Z 36003KT 310V040 CAVOK 18/12 Q1014
RJFT 160000Z VRB01KT CAVOK 17/13 Q1014
RJFT 152300Z VRB01KT CAVOK 15/14 Q1015
RJFT 152200Z 05004KT CAVOK 13/13 Q1015
RJFT 152110Z 36003KT 330V030 CAVOK 14/12 Q1015 RMK A2997
RJFT 151200Z 06004KT CAVOK 14/14 Q1017
RJFT 151100Z VRB02KT CAVOK 14/13 Q1017
RJFT 151000Z VRB02KT 9999 FEW040 17/11 Q1016
RJFT 150900Z VRB02KT 9999 FEW040 17/11 Q1017
RJFT 150800Z 23004KT 190V270 9999 FEW040 SCT/// 21/13 Q1016
RJFT 150700Z 19005KT 140V230 9999 FEW040 BKN/// 22/11 Q1016
RJFT 150600Z 22005KT 160V260 9999 FEW040 BKN/// 22/10 Q1016
RJFT 150500Z VRB02KT 9999 FEW040 BKN/// 23/09 Q1016